地図

経路データ

SID SEASON NUMBER BASIN SUBBASIN NAME ISO_TIME NATURE LAT LON WMO_WIND WMO_PRES WMO_AGENCY TRACK_TYPE DIST2LAND LANDFALL IFLAG USA_AGENCY USA_ATCF_ID USA_LAT USA_LON USA_RECORD USA_STATUS USA_WIND USA_PRES USA_SSHS USA_R34_NE USA_R34_SE USA_R34_SW USA_R34_NW USA_R50_NE USA_R50_SE USA_R50_SW USA_R50_NW USA_R64_NE USA_R64_SE USA_R64_SW USA_R64_NW USA_POCI USA_ROCI USA_RMW USA_EYE TOKYO_LAT TOKYO_LON TOKYO_GRADE TOKYO_WIND TOKYO_PRES TOKYO_R50_DIR TOKYO_R50_LONG TOKYO_R50_SHORT TOKYO_R30_DIR TOKYO_R30_LONG TOKYO_R30_SHORT TOKYO_LAND CMA_LAT CMA_LON CMA_CAT CMA_WIND CMA_PRES HKO_LAT HKO_LON HKO_CAT HKO_WIND HKO_PRES NEWDELHI_LAT NEWDELHI_LON NEWDELHI_GRADE NEWDELHI_WIND NEWDELHI_PRES NEWDELHI_CI NEWDELHI_DP NEWDELHI_POCI REUNION_LAT REUNION_LON REUNION_TYPE REUNION_WIND REUNION_PRES REUNION_TNUM REUNION_CI REUNION_RMW REUNION_R34_NE REUNION_R34_SE REUNION_R34_SW REUNION_R34_NW REUNION_R50_NE REUNION_R50_SE REUNION_R50_SW REUNION_R50_NW REUNION_R64_NE REUNION_R64_SE REUNION_R64_SW REUNION_R64_NW BOM_LAT BOM_LON BOM_TYPE BOM_WIND BOM_PRES BOM_TNUM BOM_CI BOM_RMW BOM_R34_NE BOM_R34_SE BOM_R34_SW BOM_R34_NW BOM_R50_NE BOM_R50_SE BOM_R50_SW BOM_R50_NW BOM_R64_NE BOM_R64_SE BOM_R64_SW BOM_R64_NW BOM_ROCI BOM_POCI BOM_EYE BOM_POS_METHOD BOM_PRES_METHOD NADI_LAT NADI_LON NADI_CAT NADI_WIND NADI_PRES WELLINGTON_LAT WELLINGTON_LON WELLINGTON_WIND WELLINGTON_PRES DS824_LAT DS824_LON DS824_STAGE DS824_WIND DS824_PRES TD9636_LAT TD9636_LON TD9636_STAGE TD9636_WIND TD9636_PRES TD9635_LAT TD9635_LON TD9635_WIND TD9635_PRES TD9635_ROCI NEUMANN_LAT NEUMANN_LON NEUMANN_CLASS NEUMANN_WIND NEUMANN_PRES MLC_LAT MLC_LON MLC_CLASS MLC_WIND MLC_PRES USA_GUST BOM_GUST BOM_GUST_PER REUNION_GUST REUNION_GUST_PER USA_SEAHGT USA_SEARAD_NE USA_SEARAD_SE USA_SEARAD_SW USA_SEARAD_NW STORM_SPEED STORM_DIR
2017325S10112 2018 101 SI WA CEMPAKA 2017-11-21 00:00:00 NR -10.0000 112.000 15 bom main 182 182 ______O_______ -1 -10.0000 112.000 15 45 45 9 147
2017325S10112 2018 101 SI WA CEMPAKA 2017-11-21 03:00:00 NR -10.3625 112.242 main 230 228 ______P_______ -1 -10.3625 112.242 15 6 149
2017325S10112 2018 101 SI WA CEMPAKA 2017-11-21 06:00:00 NR -10.5000 112.300 15 bom main 239 217 ______O_______ -1 -10.5000 112.300 15 45 45 2 294
2017325S10112 2018 101 SI WA CEMPAKA 2017-11-21 09:00:00 NR -10.2876 112.072 main 217 179 ______P_______ -1 -10.2876 112.072 15 7 315
2017325S10112 2018 101 SI WA CEMPAKA 2017-11-21 12:00:00 NR -10.0000 111.800 15 bom main 179 179 ______O_______ -1 -10.0000 111.800 15 45 45 4 315
2017325S10112 2018 101 SI WA CEMPAKA 2017-11-21 15:00:00 NR -9.98497 111.763 main 179 179 ______P_______ -1 -9.98497 111.763 15 0 0
2017325S10112 2018 101 SI WA CEMPAKA 2017-11-21 18:00:00 NR -10.0000 111.800 15 bom main 179 168 ______O_______ -1 -10.0000 111.800 15 45 45 1 18
2017325S10112 2018 101 SI WA CEMPAKA 2017-11-21 21:00:00 NR -9.85489 111.802 main 168 146 ______P_______ -1 -9.85489 111.802 15 3 0
2017325S10112 2018 101 SI WA CEMPAKA 2017-11-22 00:00:00 NR -9.70000 111.800 15 bom main 146 146 ______O_______ -1 -9.70000 111.800 15 45 45 2 352
2017325S10112 2018 101 SI WA CEMPAKA 2017-11-22 03:00:00 NR -9.68863 111.788 main 146 146 ______P_______ -1 -9.68863 111.788 15 1 220
2017325S10112 2018 101 SI WA CEMPAKA 2017-11-22 06:00:00 NR -9.75227 111.767 main 157 156 ______P_______ -1 -9.75227 111.767 15 2 202
2017325S10112 2018 101 SI WA CEMPAKA 2017-11-22 09:00:00 NR -9.83977 111.737 main 156 156 ______P_______ -1 -9.83977 111.737 15 2 205
2017325S10112 2018 101 SI WA CEMPAKA 2017-11-22 12:00:00 NR -9.90000 111.700 15 bom main 168 156 ______O_______ -1 -9.90000 111.700 15 45 45 1 287
2017325S10112 2018 101 SI WA CEMPAKA 2017-11-22 15:00:00 NR -9.81626 111.653 main 156 146 ______P_______ -1 -9.81626 111.653 15 2 334
2017325S10112 2018 101 SI WA CEMPAKA 2017-11-22 18:00:00 NR -9.70501 111.600 main 146 134 ______P_______ -1 -9.70501 111.600 15 2 332
2017325S10112 2018 101 SI WA CEMPAKA 2017-11-22 21:00:00 NR -9.61626 111.547 main 136 136 ______P_______ -1 -9.61626 111.547 15 1 317
2017325S10112 2018 101 SI WA CEMPAKA 2017-11-23 00:00:00 NR -9.60000 111.500 15 bom main 136 136 ______O_______ -1 -9.60000 111.500 15 45 45 2 201
2017325S10112 2018 101 SI WA CEMPAKA 2017-11-23 03:00:00 NR -9.78185 111.488 main 158 158 ______P_______ -1 -9.78185 111.488 15 4 0
2017325S10112 2018 101 SI WA CEMPAKA 2017-11-23 06:00:00 NR -10.0300 111.480 main 180 180 ______P_______ -1 -10.0300 111.480 15 5 185
2017325S10112 2018 101 SI WA CEMPAKA 2017-11-23 09:00:00 NR -10.2631 111.457 main 213 213 ______P_______ -1 -10.2631 111.457 15 4 191
2017325S10112 2018 101 SI WA CEMPAKA 2017-11-23 12:00:00 NR -10.4000 111.400 15 bom main 226 217 ______O_______ -1 -10.4000 111.400 15 45 45 2 256
2017325S10112 2018 101 SI WA CEMPAKA 2017-11-23 15:00:00 NR -10.3126 111.265 main 217 201 ______P_______ -1 -10.3126 111.265 15 4 313
2017325S10112 2018 101 SI WA CEMPAKA 2017-11-23 18:00:00 NR -10.1251 111.100 main 201 180 ______P_______ -1 -10.1251 111.100 15 5 322
2017325S10112 2018 101 SI WA CEMPAKA 2017-11-23 21:00:00 NR -9.90008 110.934 main 182 162 ______P_______ -1 -9.90008 110.934 15 5 325
2017325S10112 2018 101 SI WA CEMPAKA 2017-11-24 00:00:00 NR -9.70000 110.800 15 bom main 162 152 ______O_______ -1 -9.70000 110.800 15 45 45 3 334
2017325S10112 2018 101 SI WA CEMPAKA 2017-11-24 03:00:00 NR -9.59768 110.784 main 152 141 ______P_______ -1 -9.59768 110.784 15 2 358
2017325S10112 2018 101 SI WA CEMPAKA 2017-11-24 06:00:00 NR -9.53229 110.795 main 141 141 ______P_______ -1 -9.53229 110.795 15 1 0
2017325S10112 2018 101 SI WA CEMPAKA 2017-11-24 09:00:00 NR -9.50076 110.784 main 141 141 ______P_______ -1 -9.50076 110.784 15 1 288
2017325S10112 2018 101 SI WA CEMPAKA 2017-11-24 12:00:00 NR -9.50000 110.700 15 bom main 145 145 ______O_______ -1 -9.50000 110.700 15 45 45 3 260
2017325S10112 2018 101 SI WA CEMPAKA 2017-11-24 15:00:00 NR -9.55813 110.439 main 160 160 ______P_______ -1 -9.55813 110.439 16 6 257
2017325S10112 2018 101 SI WA CEMPAKA 2017-11-24 18:00:00 NR -9.63797 110.108 main 170 170 ______P_______ -1 -9.63797 110.108 17 7 258
2017325S10112 2018 101 SI WA CEMPAKA 2017-11-24 21:00:00 NR -9.69877 109.773 main 195 195 ______P_______ -1 -9.69877 109.773 18 6 264
2017325S10112 2018 101 SI WA CEMPAKA 2017-11-25 00:00:00 NR -9.70000 109.500 20 1004 bom main 205 199 ______O_______ -1 -9.70000 109.500 20 1004 45 45 4 292
2017325S10112 2018 101 SI WA CEMPAKA 2017-11-25 03:00:00 NR -9.54484 109.378 main 189 168 ______P_______ -1 -9.54484 109.378 20 1004 4 335
2017325S10112 2018 101 SI WA CEMPAKA 2017-11-25 06:00:00 NR -9.33482 109.325 main 168 146 ______P_______ -1 -9.33482 109.325 20 1004 4 350
2017325S10112 2018 101 SI WA CEMPAKA 2017-11-25 09:00:00 NR -9.13240 109.309 main 146 134 ______P_______ -1 -9.13240 109.309 20 1004 3 356
2017325S10112 2018 101 SI WA CEMPAKA 2017-11-25 12:00:00 NR -9.00000 109.300 20 1005 bom main 134 134 ______O_______ -1 -9.00000 109.300 20 1005 19 139 1010 45 45 1 317
2017325S10112 2018 101 SI WA CEMPAKA 2017-11-25 15:00:00 NR -9.04532 109.234 main 136 136 ______P_______ -1 -9.04532 109.234 20 1004 19 124 1010 2 219
2017325S10112 2018 101 SI WA CEMPAKA 2017-11-25 18:00:00 NR -9.16250 109.170 main 158 157 ______P_______ -1 -9.16250 109.170 20 1004 19 109 1010 3 204
2017325S10112 2018 101 SI WA CEMPAKA 2017-11-25 21:00:00 NR -9.29844 109.121 main 168 168 ______P_______ -1 -9.29844 109.121 20 1004 19 94 1010 2 196
2017325S10112 2018 101 SI WA CEMPAKA 2017-11-26 00:00:00 NR -9.40000 109.100 20 1004 bom main 179 179 ______O_______ -1 -9.40000 109.100 20 1004 19 79 1010 45 45 1 0
2017325S10112 2018 101 SI WA CEMPAKA 2017-11-26 03:00:00 NR -9.41304 109.101 main 179 179 ______P_______ -1 -9.41304 109.101 20 1003 19 79 1010 0 63
2017325S10112 2018 101 SI WA CEMPAKA 2017-11-26 06:00:00 NR -9.38178 109.132 main 179 169 ______P_______ -1 -9.38178 109.132 20 1003 19 79 1010 1 44
2017325S10112 2018 101 SI WA CEMPAKA 2017-11-26 09:00:00 NR -9.30963 109.197 main 169 157 ______P_______ -1 -9.30963 109.197 20 1003 19 79 1010 2 43
2017325S10112 2018 101 SI WA CEMPAKA 2017-11-26 12:00:00 NR -9.20000 109.300 20 1003 bom main 157 145 ______O_______ -1 -9.20000 109.300 20 1003 19 79 1010 45 45 4 43
2017325S10112 2018 101 SI WA CEMPAKA 2017-11-26 15:00:00 NR -9.04349 109.448 main 134 120 ______P_______ -1 -9.04349 109.448 22 1003 19 74 1010 4 44
2017325S10112 2018 101 SI WA CEMPAKA 2017-11-26 18:00:00 NR -8.90000 109.600 25 1003 bom main 120 105 ______O_______ -1 -8.90000 109.600 25 1003 2.50000 19 70 1010 45 45 3 49
2017325S10112 2018 101 SI WA CEMPAKA 2017-11-26 21:00:00 NR -8.84245 109.677 main 105 99 ______P_______ -1 -8.84245 109.677 25 1001 24 64 1009 2 63
2017325S10112 2018 101 SI WA CEMPAKA 2017-11-27 00:00:00 NR -8.80000 109.800 25 1000 bom main 99 79 ______O_______ -1 -8.80000 109.800 25 1000 2.50000 30 59 1008 45 45 4 70
2017325S10112 2018 101 SI WA CEMPAKA 2017-11-27 03:00:00 NR -8.69256 110.085 main 79 55 ______P_______ -1 -8.69256 110.085 27 999 30 59 1007 6 71
2017325S10112 2018 101 SI WA CEMPAKA 2017-11-27 06:00:00 NR -8.60000 110.400 30 998 bom main 55 46 ______O_______ -1 -8.60000 110.400 30 998 2.50000 30 59 1006 45 45 5 80
2017325S10112 2018 101 SI WA CEMPAKA 2017-11-27 09:00:00 NR -8.59998 110.630 main 46 44 ______P_______ -1 -8.59998 110.630 32 998 24 54 1007 4 90
2017325S10112 2018 101 SI WA CEMPAKA 2017-11-27 12:00:00 NR -8.60000 110.800 35 999 bom main 44 33 ______O_______ -1 -8.60000 110.800 35 999 3.00000 19 50 1008 49 49 3 69
2017325S10112 2018 101 SI WA CEMPAKA 2017-11-27 15:00:00 NR -8.49248 110.915 main 33 22 ______P_______ -1 -8.49248 110.915 35 998 19 50 1008 3 45
2017325S10112 2018 101 SI WA CEMPAKA 2017-11-27 18:00:00 NR -8.40000 111.000 35 998 bom main 22 15 ______O_______ -1 -8.40000 111.000 35 998 3.00000 19 50 1008 49 49 2 71
2017325S10112 2018 101 SI WA CEMPAKA 2017-11-27 21:00:00 NR -8.42000 111.130 main 15 11 ______P_______ -1 -8.42000 111.130 35 998 19 50 1008 2 117
2017325S10112 2018 101 SI WA CEMPAKA 2017-11-28 00:00:00 NR -8.50000 111.200 35 999 bom main 22 22 ______O_______ -1 -8.50000 111.200 35 999 3.00000 19 50 1008 49 49 2 170
2017325S10112 2018 101 SI WA CEMPAKA 2017-11-28 03:00:00 NR -8.62243 111.175 main 33 33 ______P_______ -1 -8.62243 111.175 35 998 19 50 1008 3 225
2017325S10112 2018 101 SI WA CEMPAKA 2017-11-28 06:00:00 NR -8.70000 111.000 35 998 bom main 49 44 ______O_______ -1 -8.70000 111.000 35 998 3.00000 19 50 1008 49 49 6 277
2017325S10112 2018 101 SI WA CEMPAKA 2017-11-28 09:00:00 NR -8.54768 110.525 main 40 40 ______P_______ -1 -8.54768 110.525 35 998 8 284
2017325S10112 2018 101 SI WA CEMPAKA 2017-11-28 12:00:00 NR -8.50000 110.200 35 998 bom main 55 55 ______O_______ -1 -8.50000 110.200 35 998 3.00000 49 49 4 0
2017325S10112 2018 101 SI WA CEMPAKA 2017-11-28 15:00:00 NR -8.92764 110.502 main 81 81 ______P_______ -1 -8.92764 110.502 35 998 12 139
2017325S10112 2018 101 SI WA CEMPAKA 2017-11-28 18:00:00 NR -9.40000 111.000 35 998 bom main 125 123 ______O_______ -1 -9.40000 111.000 35 998 3.00000 49 49 10 128
2017325S10112 2018 101 SI WA CEMPAKA 2017-11-28 21:00:00 NR -9.55735 111.320 main 141 125 ______P_______ -1 -9.55735 111.320 30 999 5 101
2017325S10112 2018 101 SI WA CEMPAKA 2017-11-29 00:00:00 NR -9.50000 111.500 25 1000 bom main 125 ______O_______ -1 -9.50000 111.500 25 1000 2.00000 2.50000 24 59 1009 45 45 4 72

IBTrACS Databaseについて

本データベースは、米国NOAAが公開する1842年以降の世界の熱帯低気圧のベストトラックデータアーカイブInternational Best Track Archive for Climate Stewardship (IBTrACS)を、ウェブで閲覧しやすい形式に変換したものです。

最終更新日:2021-10-08